createdAt,value
2022-10-28T00:00:08.797Z,99773.00
2022-10-28T00:01:42.167Z,99766.00
2022-10-28T00:03:16.967Z,99772.00
2022-10-28T00:04:50.146Z,99764.00
2022-10-28T00:06:26.140Z,99766.00
2022-10-28T00:07:59.308Z,99759.00
2022-10-28T00:09:31.829Z,99775.00
2022-10-28T00:11:07.752Z,99766.00
2022-10-28T00:12:40.928Z,99761.00
2022-10-28T00:14:15.179Z,99755.00
2022-10-28T00:15:48.776Z,99762.00
2022-10-28T00:17:21.918Z,99755.00
2022-10-28T00:18:56.939Z,99756.00
2022-10-28T00:20:32.424Z,99749.00
2022-10-28T00:22:05.742Z,99751.00
2022-10-28T00:23:38.419Z,99755.00
2022-10-28T00:25:11.856Z,99756.00
2022-10-28T00:26:45.932Z,99748.00
2022-10-28T00:28:18.472Z,99742.00
2022-10-28T00:29:51.746Z,99749.00
2022-10-28T00:31:29.407Z,99747.00
2022-10-28T00:33:01.538Z,99745.00
2022-10-28T00:34:34.916Z,99745.00
2022-10-28T00:36:14.131Z,99741.00
2022-10-28T00:37:47.332Z,99737.00
2022-10-28T00:39:23.502Z,99735.00
2022-10-28T00:40:57.542Z,99740.00
2022-10-28T00:42:30.856Z,99737.00
2022-10-28T00:44:56.505Z,99723.00
2022-10-28T00:46:40.480Z,99726.00
2022-10-28T00:48:13.797Z,99732.00
2022-10-28T00:49:50.197Z,99726.00
2022-10-28T00:51:26.311Z,99725.00
2022-10-28T00:53:12.150Z,99723.00
2022-10-28T00:54:46.378Z,99721.00
2022-10-28T00:56:22.054Z,99711.00
2022-10-28T00:57:57.739Z,99718.00
2022-10-28T00:59:36.140Z,99712.00
2022-10-28T01:01:11.409Z,99713.00
2022-10-28T01:02:48.971Z,99706.00
2022-10-28T01:04:22.611Z,99702.00
2022-10-28T01:05:57.083Z,99707.00
2022-10-28T01:07:30.833Z,99704.00
2022-10-28T01:09:05.117Z,99702.00
2022-10-28T01:11:08.096Z,99693.00
2022-10-28T01:12:58.369Z,99687.00
2022-10-28T01:15:00.510Z,99687.00
2022-10-28T01:16:57.959Z,99690.00
2022-10-28T01:18:43.312Z,99687.00
2022-10-28T01:21:12.158Z,99690.00
2022-10-28T01:22:55.164Z,99690.00
2022-10-28T01:24:53.380Z,99693.00
2022-10-28T01:27:16.168Z,99690.00
2022-10-28T01:29:32.698Z,99686.00
2022-10-28T01:31:28.161Z,99694.00
2022-10-28T01:33:10.597Z,99690.00
2022-10-28T01:34:58.132Z,99681.00
2022-10-28T01:36:41.765Z,99682.00
2022-10-28T01:38:32.047Z,99684.00
2022-10-28T01:40:12.314Z,99679.00
2022-10-28T01:41:56.149Z,99674.00
2022-10-28T01:43:37.160Z,99679.00
2022-10-28T01:45:19.078Z,99680.00
2022-10-28T01:47:03.919Z,99680.00
2022-10-28T01:48:44.481Z,99687.00
2022-10-28T01:50:26.206Z,99681.00
2022-10-28T01:52:05.190Z,99688.00
2022-10-28T01:53:42.446Z,99678.00
2022-10-28T01:55:23.723Z,99681.00
2022-10-28T01:57:00.344Z,99690.00
2022-10-28T01:58:34.919Z,99679.00
2022-10-28T02:00:09.920Z,99673.00
2022-10-28T02:01:46.438Z,99675.00
2022-10-28T02:03:21.906Z,99674.00
2022-10-28T02:05:07.299Z,99675.00
2022-10-28T02:06:44.962Z,99669.00
2022-10-28T02:08:51.298Z,99669.00
2022-10-28T02:10:34.079Z,99664.00
2022-10-28T02:12:23.034Z,99669.00
2022-10-28T02:14:08.284Z,99673.00
2022-10-28T02:15:49.922Z,99661.00
2022-10-28T02:17:33.615Z,99659.00
2022-10-28T02:19:16.781Z,99661.00
2022-10-28T02:20:56.214Z,99668.00
2022-10-28T02:22:41.876Z,99662.00
2022-10-28T02:24:22.040Z,99669.00
2022-10-28T02:26:01.675Z,99653.00
2022-10-28T02:27:45.571Z,99660.00
2022-10-28T02:29:31.044Z,99645.00
2022-10-28T02:31:10.541Z,99656.00
2022-10-28T02:32:49.867Z,99653.00
2022-10-28T02:34:32.054Z,99658.00
2022-10-28T02:36:10.145Z,99661.00
2022-10-28T02:37:46.078Z,99657.00
2022-10-28T02:39:25.043Z,99654.00
2022-10-28T02:41:04.655Z,99665.00
2022-10-28T02:42:42.098Z,99655.00
2022-10-28T02:44:19.883Z,99657.00
2022-10-28T02:45:58.720Z,99656.00
2022-10-28T02:47:38.187Z,99657.00
2022-10-28T02:49:15.641Z,99656.00
2022-10-28T02:50:57.773Z,99655.00
2022-10-28T02:52:34.598Z,99658.00
2022-10-28T02:54:13.185Z,99653.00
2022-10-28T02:55:52.469Z,99656.00
2022-10-28T02:57:28.618Z,99663.00
2022-10-28T02:59:02.048Z,99654.00
2022-10-28T03:00:35.256Z,99652.00
2022-10-28T03:02:09.489Z,99650.00
2022-10-28T03:03:43.344Z,99642.00
2022-10-28T03:05:16.725Z,99650.00
2022-10-28T03:06:51.233Z,99659.00
2022-10-28T03:08:25.277Z,99652.00
2022-10-28T03:09:58.510Z,99655.00
2022-10-28T03:11:31.745Z,99654.00
2022-10-28T03:13:04.002Z,99643.00
2022-10-28T03:14:37.383Z,99651.00
2022-10-28T03:16:10.826Z,99640.00
2022-10-28T03:17:44.126Z,99638.00
2022-10-28T03:19:17.395Z,99630.00
2022-10-28T03:20:52.432Z,99632.00
2022-10-28T03:22:28.824Z,99631.00
2022-10-28T03:24:01.156Z,99624.00
2022-10-28T03:25:34.349Z,99628.00
2022-10-28T03:27:07.835Z,99632.00
2022-10-28T03:28:40.104Z,99636.00
2022-10-28T03:30:14.491Z,99635.00
2022-10-28T03:31:47.862Z,99631.00
2022-10-28T03:33:20.230Z,99624.00
2022-10-28T03:34:53.498Z,99624.00
2022-10-28T03:36:26.731Z,99628.00
2022-10-28T03:38:00.359Z,99613.00
2022-10-28T03:39:33.844Z,99619.00
2022-10-28T03:41:07.396Z,99614.00
2022-10-28T03:42:41.645Z,99620.00
2022-10-28T03:44:14.903Z,99624.00
2022-10-28T03:45:49.211Z,99615.00
2022-10-28T03:47:22.371Z,99618.00
2022-10-28T03:48:55.630Z,99613.00
2022-10-28T03:50:28.867Z,99617.00
2022-10-28T03:52:02.122Z,99619.00
2022-10-28T03:53:36.822Z,99620.00
2022-10-28T03:55:09.490Z,99616.00
2022-10-28T03:56:42.652Z,99609.00
2022-10-28T03:58:15.911Z,99612.00
2022-10-28T03:59:49.101Z,99593.00
2022-10-28T04:01:22.650Z,99605.00
2022-10-28T04:02:56.636Z,99603.00
2022-10-28T04:04:30.899Z,99603.00
2022-10-28T04:06:04.520Z,99606.00
2022-10-28T04:07:36.706Z,99601.00
2022-10-28T04:09:11.281Z,99602.00
2022-10-28T04:10:47.475Z,99599.00
2022-10-28T04:12:21.242Z,99600.00
2022-10-28T04:13:54.472Z,99599.00
2022-10-28T04:15:27.662Z,99596.00
2022-10-28T04:17:00.853Z,99602.00
2022-10-28T04:18:35.339Z,99607.00
2022-10-28T04:20:10.066Z,99609.00
2022-10-28T04:21:43.544Z,99615.00
2022-10-28T04:23:19.235Z,99610.00
2022-10-28T04:24:54.659Z,99604.00
2022-10-28T04:26:28.002Z,99615.00
2022-10-28T04:28:01.246Z,99598.00
2022-10-28T04:29:34.663Z,99603.00
2022-10-28T04:31:08.063Z,99605.00
2022-10-28T04:32:42.597Z,99604.00
2022-10-28T04:34:15.960Z,99600.00
2022-10-28T04:35:49.565Z,99598.00
2022-10-28T04:37:25.891Z,99597.00
2022-10-28T04:38:59.892Z,99594.00
2022-10-28T04:40:34.375Z,99592.00
2022-10-28T04:42:07.679Z,99602.00
2022-10-28T04:43:41.008Z,99605.00
2022-10-28T04:45:13.250Z,99611.00
2022-10-28T04:46:46.528Z,99600.00
2022-10-28T04:48:19.732Z,99602.00
2022-10-28T04:49:52.682Z,99606.00
2022-10-28T04:51:26.077Z,99604.00
2022-10-28T04:52:59.315Z,99605.00
2022-10-28T04:54:32.537Z,99605.00
2022-10-28T04:56:08.005Z,99602.00
2022-10-28T04:57:41.097Z,99609.00
2022-10-28T04:59:14.587Z,99599.00
2022-10-28T05:00:47.682Z,99606.00
2022-10-28T05:02:23.334Z,99605.00
2022-10-28T05:03:56.729Z,99604.00
2022-10-28T05:05:29.979Z,99613.00
2022-10-28T05:07:03.288Z,99610.00
2022-10-28T05:08:36.542Z,99616.00
2022-10-28T05:10:11.966Z,99608.00
2022-10-28T05:11:46.623Z,99605.00
2022-10-28T05:13:20.917Z,99607.00
2022-10-28T05:14:54.115Z,99598.00
2022-10-28T05:16:27.445Z,99599.00
2022-10-28T05:18:00.558Z,99602.00
2022-10-28T05:19:33.834Z,99598.00
2022-10-28T05:21:07.433Z,99601.00
2022-10-28T05:22:46.982Z,99605.00
2022-10-28T05:24:20.170Z,99603.00
2022-10-28T05:25:53.401Z,99598.00
2022-10-28T05:27:26.947Z,99602.00
2022-10-28T05:29:00.138Z,99601.00
2022-10-28T05:30:33.434Z,99605.00
2022-10-28T05:32:07.556Z,99603.00
2022-10-28T05:33:42.240Z,99601.00
2022-10-28T05:35:15.367Z,99606.00
2022-10-28T05:36:50.703Z,99605.00
2022-10-28T05:38:23.894Z,99602.00
2022-10-28T05:39:57.092Z,99604.00
2022-10-28T05:41:33.039Z,99608.00
2022-10-28T05:43:11.389Z,99602.00
2022-10-28T05:44:44.851Z,99603.00
2022-10-28T05:46:18.009Z,99595.00
2022-10-28T05:47:51.385Z,99598.00
2022-10-28T05:49:24.802Z,99605.00
2022-10-28T05:50:58.162Z,99595.00
2022-10-28T05:52:31.449Z,99610.00
2022-10-28T05:54:05.353Z,99608.00
2022-10-28T05:55:38.630Z,99614.00
2022-10-28T05:57:11.847Z,99610.00
2022-10-28T05:58:47.495Z,99615.00
2022-10-28T06:00:24.050Z,99614.00
2022-10-28T06:01:57.637Z,99606.00
2022-10-28T06:03:31.363Z,99607.00
2022-10-28T06:05:08.049Z,99609.00
2022-10-28T06:06:41.438Z,99612.00
2022-10-28T06:08:15.693Z,99614.00
2022-10-28T06:09:50.632Z,99619.00
2022-10-28T06:11:22.150Z,99618.00
2022-10-28T06:12:55.819Z,99619.00
2022-10-28T06:14:30.657Z,99627.00
2022-10-28T06:16:04.582Z,99628.00
2022-10-28T06:17:37.872Z,99622.00
2022-10-28T06:19:11.236Z,99618.00
2022-10-28T06:20:44.456Z,99632.00
2022-10-28T06:22:18.922Z,99629.00
2022-10-28T06:23:52.999Z,99634.00
2022-10-28T06:25:27.176Z,99642.00
2022-10-28T06:27:00.425Z,99634.00
2022-10-28T06:28:33.918Z,99637.00
2022-10-28T06:30:10.358Z,99643.00
2022-10-28T06:31:44.006Z,99638.00
2022-10-28T06:33:17.478Z,99635.00
2022-10-28T06:34:50.850Z,99635.00
2022-10-28T06:36:24.147Z,99641.00
2022-10-28T06:37:57.767Z,99637.00
2022-10-28T06:39:31.015Z,99639.00
2022-10-28T06:41:04.757Z,99632.00
2022-10-28T06:42:38.015Z,99635.00
2022-10-28T06:44:11.317Z,99635.00
2022-10-28T06:45:46.833Z,99633.00
2022-10-28T06:47:21.994Z,99635.00
2022-10-28T06:48:57.269Z,99652.00
2022-10-28T06:50:33.590Z,99647.00
2022-10-28T06:52:06.814Z,99642.00
2022-10-28T06:53:40.253Z,99635.00
2022-10-28T06:55:13.452Z,99635.00
2022-10-28T06:56:48.528Z,99634.00
2022-10-28T06:58:22.056Z,99637.00
2022-10-28T06:59:55.784Z,99643.00
2022-10-28T07:01:30.719Z,99648.00
2022-10-28T07:03:03.945Z,99647.00
2022-10-28T07:04:37.541Z,99651.00
2022-10-28T07:06:11.410Z,99644.00
2022-10-28T07:07:44.769Z,99654.00
2022-10-28T07:09:18.176Z,99651.00
2022-10-28T07:10:56.241Z,99658.00
2022-10-28T07:12:29.490Z,99649.00
2022-10-28T07:14:02.926Z,99649.00
2022-10-28T07:15:36.240Z,99653.00
2022-10-28T07:17:10.701Z,99650.00
2022-10-28T07:18:43.927Z,99654.00
2022-10-28T07:20:17.283Z,99664.00
2022-10-28T07:21:50.558Z,99662.00
2022-10-28T07:23:24.565Z,99667.00
2022-10-28T07:24:57.788Z,99662.00
2022-10-28T07:26:30.950Z,99670.00
2022-10-28T07:28:04.700Z,99667.00
2022-10-28T07:29:37.911Z,99668.00
2022-10-28T07:32:50.846Z,99671.00
2022-10-28T07:34:27.031Z,99675.00
2022-10-28T07:36:03.921Z,99665.00
2022-10-28T07:37:39.321Z,99672.00
2022-10-28T07:39:12.812Z,99670.00
2022-10-28T07:40:46.360Z,99671.00
2022-10-28T07:42:19.548Z,99671.00
2022-10-28T07:43:52.934Z,99672.00
2022-10-28T07:45:26.391Z,99675.00
2022-10-28T07:46:59.612Z,99672.00
2022-10-28T07:48:35.004Z,99671.00
2022-10-28T07:50:09.736Z,99673.00
2022-10-28T07:51:42.963Z,99672.00
2022-10-28T07:54:54.631Z,99682.00
2022-10-28T07:56:27.938Z,99675.00
2022-10-28T07:58:01.219Z,99677.00
2022-10-28T07:59:34.368Z,99677.00
2022-10-28T08:01:10.616Z,99677.00
2022-10-28T08:02:43.944Z,99676.00
2022-10-28T08:04:18.494Z,99673.00
2022-10-28T08:05:53.493Z,99675.00
2022-10-28T08:07:33.735Z,99674.00
2022-10-28T08:09:09.672Z,99667.00
2022-10-28T08:10:42.861Z,99668.00
2022-10-28T08:12:16.873Z,99672.00
2022-10-28T08:13:50.258Z,99666.00
2022-10-28T08:15:23.975Z,99665.00
2022-10-28T08:16:57.323Z,99672.00
2022-10-28T08:18:30.523Z,99674.00
2022-10-28T08:20:06.293Z,99670.00
2022-10-28T08:21:39.462Z,99674.00
2022-10-28T08:23:12.729Z,99670.00
2022-10-28T08:24:46.006Z,99679.00
2022-10-28T08:26:19.299Z,99678.00
2022-10-28T08:27:52.610Z,99671.00
2022-10-28T08:29:29.166Z,99674.00
2022-10-28T08:31:09.452Z,99674.00
2022-10-28T08:32:43.087Z,99672.00
2022-10-28T08:34:16.728Z,99676.00
2022-10-28T08:35:56.682Z,99672.00
2022-10-28T08:37:30.041Z,99660.00
2022-10-28T08:39:03.901Z,99676.00
2022-10-28T08:40:54.354Z,99677.00
2022-10-28T08:42:42.064Z,99670.00
2022-10-28T08:45:01.554Z,99669.00
2022-10-28T08:46:57.435Z,99676.00
2022-10-28T08:48:34.789Z,99668.00
2022-10-28T08:50:16.440Z,99667.00
2022-10-28T08:51:58.372Z,99657.00
2022-10-28T08:53:40.249Z,99652.00
2022-10-28T08:55:18.999Z,99651.00
2022-10-28T08:56:56.060Z,99650.00
2022-10-28T08:58:35.400Z,99645.00
2022-10-28T09:00:19.662Z,99647.00
2022-10-28T09:02:00.900Z,99640.00
2022-10-28T09:03:40.861Z,99644.00
2022-10-28T09:05:23.454Z,99644.00
2022-10-28T09:06:58.138Z,99649.00
2022-10-28T09:08:37.663Z,99651.00
2022-10-28T09:10:16.455Z,99649.00
2022-10-28T09:12:06.990Z,99649.00
2022-10-28T09:14:11.942Z,99648.00
2022-10-28T09:15:59.346Z,99651.00
2022-10-28T09:17:44.137Z,99649.00
2022-10-28T09:19:38.037Z,99654.00
2022-10-28T09:21:19.286Z,99651.00
2022-10-28T09:22:59.513Z,99653.00
2022-10-28T09:24:50.782Z,99645.00
2022-10-28T09:26:42.378Z,99655.00
2022-10-28T09:28:39.316Z,99653.00
2022-10-28T09:30:31.753Z,99647.00
2022-10-28T09:32:15.583Z,99648.00
2022-10-28T09:34:03.910Z,99649.00
2022-10-28T09:35:43.854Z,99640.00
2022-10-28T09:37:23.807Z,99645.00
2022-10-28T09:39:03.552Z,99648.00
2022-10-28T09:40:42.643Z,99652.00
2022-10-28T09:42:24.325Z,99645.00
2022-10-28T09:44:07.829Z,99646.00
2022-10-28T09:45:48.137Z,99645.00
2022-10-28T09:47:25.257Z,99645.00
2022-10-28T09:49:05.746Z,99641.00
2022-10-28T09:50:39.388Z,99646.00
2022-10-28T09:52:19.957Z,99645.00
2022-10-28T09:53:59.472Z,99647.00
2022-10-28T09:55:33.309Z,99640.00
2022-10-28T09:57:07.632Z,99651.00
2022-10-28T09:58:46.825Z,99646.00
2022-10-28T10:00:20.867Z,99651.00
2022-10-28T10:01:54.352Z,99645.00
2022-10-28T10:03:27.749Z,99643.00
2022-10-28T10:05:03.580Z,99644.00
2022-10-28T10:06:42.640Z,99642.00
2022-10-28T10:08:19.541Z,99652.00
2022-10-28T10:09:54.234Z,99641.00
2022-10-28T10:11:34.393Z,99655.00
2022-10-28T10:13:10.157Z,99659.00
2022-10-28T10:14:49.292Z,99643.00
2022-10-28T10:16:32.188Z,99649.00
2022-10-28T10:18:08.342Z,99650.00
2022-10-28T10:20:07.496Z,99658.00
2022-10-28T10:21:47.505Z,99649.00
2022-10-28T10:23:30.389Z,99668.00
2022-10-28T10:25:24.154Z,99657.00
2022-10-28T10:27:00.527Z,99653.00
2022-10-28T10:28:42.776Z,99666.00
2022-10-28T10:30:23.977Z,99651.00
2022-10-28T10:32:17.432Z,99668.00
2022-10-28T10:33:54.488Z,99673.00
2022-10-28T10:35:32.088Z,99665.00
2022-10-28T10:37:06.006Z,99664.00
2022-10-28T10:38:48.438Z,99659.00
2022-10-28T10:40:30.986Z,99653.00
2022-10-28T10:42:15.547Z,99652.00
2022-10-28T10:43:48.739Z,99652.00
2022-10-28T10:45:26.128Z,99649.00
2022-10-28T10:47:22.579Z,99653.00
2022-10-28T10:49:14.230Z,99656.00
2022-10-28T10:50:50.530Z,99653.00
2022-10-28T10:52:26.209Z,99650.00
2022-10-28T10:54:01.049Z,99647.00
2022-10-28T10:55:37.879Z,99648.00
2022-10-28T10:57:23.153Z,99647.00
2022-10-28T10:59:02.778Z,99648.00
2022-10-28T11:00:45.525Z,99647.00
2022-10-28T11:02:27.409Z,99638.00
2022-10-28T11:04:03.030Z,99641.00
2022-10-28T11:05:38.503Z,99634.00
2022-10-28T11:07:17.361Z,99633.00
2022-10-28T11:08:56.907Z,99630.00
2022-10-28T11:10:35.406Z,99631.00
2022-10-28T11:12:25.340Z,99630.00
2022-10-28T11:14:06.998Z,99627.00
2022-10-28T11:15:40.288Z,99631.00
2022-10-28T11:17:27.664Z,99626.00
2022-10-28T11:19:21.457Z,99623.00
2022-10-28T11:21:05.693Z,99621.00
2022-10-28T11:22:48.519Z,99629.00
2022-10-28T11:24:49.439Z,99613.00
2022-10-28T11:26:25.673Z,99608.00
2022-10-28T11:28:19.179Z,99615.00
2022-10-28T11:29:52.703Z,99607.00
2022-10-28T11:31:56.649Z,99609.00
2022-10-28T11:33:44.473Z,99610.00
2022-10-28T11:35:52.576Z,99608.00
2022-10-28T11:37:48.670Z,99610.00
2022-10-28T11:39:28.399Z,99601.00
2022-10-28T11:41:25.383Z,99606.00
2022-10-28T11:43:20.581Z,99605.00
2022-10-28T11:44:58.869Z,99603.00
2022-10-28T11:46:51.597Z,99601.00
2022-10-28T11:48:57.002Z,99600.00
2022-10-28T11:50:49.144Z,99602.00
2022-10-28T11:52:44.279Z,99593.00
2022-10-28T11:54:37.818Z,99598.00
2022-10-28T11:56:26.912Z,99607.00
2022-10-28T11:58:20.243Z,99598.00
2022-10-28T12:00:24.840Z,99584.00
2022-10-28T12:02:16.148Z,99588.00
2022-10-28T12:04:13.259Z,99585.00
2022-10-28T12:05:56.840Z,99581.00
2022-10-28T12:08:03.915Z,99572.00
2022-10-28T12:10:00.108Z,99570.00
2022-10-28T12:11:49.519Z,99572.00
2022-10-28T12:13:38.499Z,99575.00
2022-10-28T12:15:26.669Z,99575.00
2022-10-28T12:17:14.533Z,99579.00
2022-10-28T12:18:56.280Z,99562.00
2022-10-28T12:20:36.492Z,99560.00
2022-10-28T12:22:19.462Z,99579.00
2022-10-28T12:23:56.390Z,99571.00
2022-10-28T12:25:34.905Z,99574.00
2022-10-28T12:27:18.261Z,99567.00
2022-10-28T12:28:59.048Z,99571.00
2022-10-28T12:30:36.825Z,99575.00
2022-10-28T12:32:15.033Z,99568.00
2022-10-28T12:33:53.363Z,99567.00
2022-10-28T12:35:33.800Z,99553.00
2022-10-28T12:37:12.545Z,99565.00
2022-10-28T12:38:55.063Z,99568.00
2022-10-28T12:40:36.661Z,99572.00
2022-10-28T12:42:17.498Z,99552.00
2022-10-28T12:44:01.239Z,99561.00
2022-10-28T12:45:34.933Z,99566.00
2022-10-28T12:47:23.439Z,99567.00
2022-10-28T12:49:04.576Z,99554.00
2022-10-28T12:50:49.986Z,99565.00
2022-10-28T12:52:34.050Z,99562.00
2022-10-28T12:54:19.692Z,99562.00
2022-10-28T12:55:59.844Z,99549.00
2022-10-28T12:57:35.486Z,99550.00
2022-10-28T12:59:19.009Z,99552.00
2022-10-28T13:00:58.365Z,99556.00
2022-10-28T13:02:40.349Z,99556.00
2022-10-28T13:04:14.219Z,99549.00
2022-10-28T13:05:57.769Z,99549.00
2022-10-28T13:07:58.522Z,99547.00
2022-10-28T13:09:47.592Z,99552.00
2022-10-28T13:12:44.459Z,99554.00
2022-10-28T13:15:12.464Z,99560.00
2022-10-28T13:17:13.127Z,99549.00
2022-10-28T13:19:21.100Z,99546.00
2022-10-28T13:21:08.196Z,99548.00
2022-10-28T13:23:11.318Z,99556.00
2022-10-28T13:24:57.360Z,99552.00
2022-10-28T13:26:34.446Z,99551.00
2022-10-28T13:28:14.420Z,99548.00
2022-10-28T13:29:53.907Z,99548.00
2022-10-28T13:31:40.300Z,99555.00
2022-10-28T13:33:25.272Z,99548.00
2022-10-28T13:34:59.870Z,99561.00
2022-10-28T13:36:36.555Z,99550.00
2022-10-28T13:38:14.164Z,99549.00
2022-10-28T13:39:48.550Z,99550.00
2022-10-28T13:41:44.817Z,99541.00
2022-10-28T13:43:42.819Z,99547.00
2022-10-28T13:45:49.016Z,99543.00
2022-10-28T13:47:32.226Z,99549.00
2022-10-28T13:49:24.833Z,99546.00
2022-10-28T13:51:32.010Z,99551.00
2022-10-28T13:53:52.831Z,99562.00
2022-10-28T13:55:41.492Z,99557.00
2022-10-28T13:57:26.931Z,99557.00
2022-10-28T13:59:03.074Z,99560.00
2022-10-28T14:00:39.218Z,99552.00
2022-10-28T14:02:35.137Z,99556.00
2022-10-28T14:04:25.833Z,99562.00
2022-10-28T14:06:01.635Z,99564.00
2022-10-28T14:07:39.180Z,99564.00
2022-10-28T14:09:23.119Z,99567.00
2022-10-28T14:11:04.818Z,99572.00
2022-10-28T14:12:44.238Z,99571.00
2022-10-28T14:14:20.595Z,99572.00
2022-10-28T14:16:29.934Z,99568.00
2022-10-28T14:18:22.418Z,99577.00
2022-10-28T14:20:03.458Z,99568.00
2022-10-28T14:21:44.888Z,99571.00
2022-10-28T14:24:16.363Z,99568.00
2022-10-28T14:26:06.093Z,99562.00
2022-10-28T14:27:44.341Z,99570.00
2022-10-28T14:29:30.058Z,99562.00
2022-10-28T14:31:35.867Z,99566.00
2022-10-28T14:33:28.217Z,99564.00
2022-10-28T14:35:06.400Z,99566.00
2022-10-28T14:36:54.135Z,99566.00
2022-10-28T14:38:58.364Z,99574.00
2022-10-28T14:40:36.918Z,99563.00
2022-10-28T14:42:42.200Z,99569.00
2022-10-28T14:44:41.079Z,99584.00
2022-10-28T14:46:35.288Z,99576.00
2022-10-28T14:48:49.371Z,99577.00
2022-10-28T14:50:25.648Z,99584.00
2022-10-28T14:52:08.475Z,99591.00
2022-10-28T14:53:44.232Z,99589.00
2022-10-28T14:55:26.979Z,99595.00
2022-10-28T14:57:01.351Z,99597.00
2022-10-28T14:58:41.375Z,99593.00
2022-10-28T15:00:20.487Z,99595.00
2022-10-28T15:02:05.437Z,99590.00
2022-10-28T15:03:40.102Z,99597.00
2022-10-28T15:05:32.204Z,99602.00
2022-10-28T15:07:05.667Z,99605.00
2022-10-28T15:08:39.060Z,99612.00
2022-10-28T15:10:18.886Z,99605.00
2022-10-28T15:11:57.093Z,99602.00
2022-10-28T15:13:30.405Z,99616.00
2022-10-28T15:15:04.540Z,99626.00
2022-10-28T15:16:46.243Z,99621.00
2022-10-28T15:18:24.468Z,99628.00
2022-10-28T15:20:01.129Z,99624.00
2022-10-28T15:21:34.771Z,99632.00
2022-10-28T15:23:21.023Z,99623.00
2022-10-28T15:25:00.983Z,99626.00
2022-10-28T15:26:34.396Z,99619.00
2022-10-28T15:28:10.716Z,99625.00
2022-10-28T15:29:44.481Z,99625.00
2022-10-28T15:31:18.282Z,99628.00
2022-10-28T15:32:52.501Z,99624.00
2022-10-28T15:34:24.691Z,99622.00
2022-10-28T15:36:15.261Z,99632.00
2022-10-28T15:37:52.504Z,99633.00
2022-10-28T15:39:25.905Z,99638.00
2022-10-28T15:40:59.919Z,99640.00
2022-10-28T15:42:42.140Z,99642.00
2022-10-28T15:44:42.521Z,99650.00
2022-10-28T15:46:17.841Z,99649.00
2022-10-28T15:47:51.775Z,99655.00
2022-10-28T15:49:38.262Z,99657.00
2022-10-28T15:51:16.850Z,99662.00
2022-10-28T15:52:56.961Z,99669.00
2022-10-28T15:54:30.616Z,99672.00
2022-10-28T15:56:20.601Z,99669.00
2022-10-28T15:57:56.293Z,99669.00
2022-10-28T15:59:29.486Z,99674.00
2022-10-28T16:01:02.885Z,99671.00
2022-10-28T16:02:42.142Z,99677.00
2022-10-28T16:04:45.761Z,99682.00
2022-10-28T16:06:27.440Z,99686.00
2022-10-28T16:08:04.833Z,99676.00
2022-10-28T16:09:46.448Z,99686.00
2022-10-28T16:11:21.148Z,99690.00
2022-10-28T16:12:54.508Z,99698.00
2022-10-28T16:14:37.611Z,99695.00
2022-10-28T16:16:14.712Z,99701.00
2022-10-28T16:17:47.976Z,99702.00
2022-10-28T16:19:29.632Z,99704.00
2022-10-28T16:21:06.144Z,99714.00
2022-10-28T16:22:41.837Z,99713.00
2022-10-28T16:24:16.295Z,99707.00
2022-10-28T16:25:49.597Z,99717.00
2022-10-28T16:27:25.256Z,99714.00
2022-10-28T16:28:58.760Z,99708.00
2022-10-28T16:30:31.899Z,99720.00
2022-10-28T16:32:06.885Z,99715.00
2022-10-28T16:33:40.206Z,99716.00
2022-10-28T16:35:17.696Z,99715.00
2022-10-28T16:36:50.849Z,99717.00
2022-10-28T16:38:24.647Z,99714.00
2022-10-28T16:39:59.438Z,99716.00
2022-10-28T16:41:32.826Z,99708.00
2022-10-28T16:43:05.296Z,99714.00
2022-10-28T16:44:38.634Z,99720.00
2022-10-28T16:46:14.134Z,99721.00
2022-10-28T16:47:47.365Z,99734.00
2022-10-28T16:49:20.442Z,99729.00
2022-10-28T16:50:56.780Z,99732.00
2022-10-28T16:52:31.925Z,99738.00
2022-10-28T16:54:05.272Z,99740.00
2022-10-28T16:55:39.905Z,99730.00
2022-10-28T16:57:13.221Z,99729.00
2022-10-28T16:58:46.759Z,99745.00
2022-10-28T17:00:20.712Z,99726.00
2022-10-28T17:01:53.975Z,99733.00
2022-10-28T17:03:27.395Z,99731.00
2022-10-28T17:05:01.035Z,99723.00
2022-10-28T17:06:34.674Z,99725.00
2022-10-28T17:08:09.989Z,99723.00
2022-10-28T17:09:44.276Z,99731.00
2022-10-28T17:11:18.837Z,99735.00
2022-10-28T17:12:53.170Z,99745.00
2022-10-28T17:14:26.987Z,99734.00
2022-10-28T17:16:00.162Z,99731.00
2022-10-28T17:17:33.369Z,99740.00
2022-10-28T17:19:06.570Z,99746.00
2022-10-28T17:20:39.982Z,99749.00
2022-10-28T17:22:12.813Z,99757.00
2022-10-28T17:23:45.985Z,99756.00
2022-10-28T17:25:19.843Z,99753.00
2022-10-28T17:26:54.412Z,99754.00
2022-10-28T17:28:27.784Z,99753.00
2022-10-28T17:30:01.688Z,99756.00
2022-10-28T17:31:35.266Z,99759.00
2022-10-28T17:33:09.947Z,99751.00
2022-10-28T17:34:43.199Z,99748.00
2022-10-28T17:36:16.360Z,99745.00
2022-10-28T17:37:50.384Z,99732.00
2022-10-28T17:39:26.231Z,99742.00
2022-10-28T17:40:59.789Z,99742.00
2022-10-28T17:42:34.375Z,99742.00
2022-10-28T17:44:07.499Z,99751.00
2022-10-28T17:45:41.200Z,99743.00
2022-10-28T17:47:14.847Z,99742.00
2022-10-28T17:48:48.457Z,99739.00
2022-10-28T17:50:21.546Z,99750.00
2022-10-28T17:51:54.815Z,99756.00
2022-10-28T17:53:28.008Z,99756.00
2022-10-28T17:55:01.121Z,99768.00
2022-10-28T17:56:35.080Z,99762.00
2022-10-28T17:58:09.980Z,99765.00
2022-10-28T17:59:43.262Z,99764.00
2022-10-28T18:01:16.563Z,99766.00
2022-10-28T18:02:50.092Z,99756.00
2022-10-28T18:04:26.128Z,99753.00
2022-10-28T18:06:03.411Z,99763.00
2022-10-28T18:07:36.666Z,99758.00
2022-10-28T18:09:12.604Z,99753.00
2022-10-28T18:10:52.736Z,99753.00
2022-10-28T18:12:25.991Z,99762.00
2022-10-28T18:14:00.514Z,99761.00
2022-10-28T18:15:37.888Z,99755.00
2022-10-28T18:17:14.588Z,99752.00
2022-10-28T18:18:48.456Z,99764.00
2022-10-28T18:20:21.682Z,99757.00
2022-10-28T18:21:54.917Z,99759.00
2022-10-28T18:23:28.816Z,99756.00
2022-10-28T18:25:01.992Z,99766.00
2022-10-28T18:26:37.671Z,99754.00
2022-10-28T18:28:10.884Z,99761.00
2022-10-28T18:29:45.362Z,99758.00
2022-10-28T18:31:21.005Z,99764.00
2022-10-28T18:32:54.368Z,99763.00
2022-10-28T18:34:28.338Z,99754.00
2022-10-28T18:36:01.938Z,99765.00
2022-10-28T18:37:35.141Z,99766.00
2022-10-28T18:39:09.411Z,99766.00
2022-10-28T18:40:48.007Z,99767.00
2022-10-28T18:42:22.080Z,99773.00
2022-10-28T18:43:56.685Z,99785.00
2022-10-28T18:45:32.403Z,99790.00
2022-10-28T18:47:05.690Z,99794.00
2022-10-28T18:48:39.760Z,99802.00
2022-10-28T18:50:13.211Z,99805.00
2022-10-28T18:51:46.451Z,99803.00
2022-10-28T18:53:18.897Z,99797.00
2022-10-28T18:54:52.968Z,99802.00
2022-10-28T18:56:29.567Z,99802.00
2022-10-28T18:58:02.768Z,99805.00
2022-10-28T18:59:43.250Z,99803.00
2022-10-28T19:01:29.916Z,99805.00
2022-10-28T19:03:03.799Z,99808.00
2022-10-28T19:04:37.057Z,99812.00
2022-10-28T19:06:13.539Z,99813.00
2022-10-28T19:07:47.086Z,99818.00
2022-10-28T19:09:20.483Z,99810.00
2022-10-28T19:10:56.593Z,99817.00
2022-10-28T19:12:29.738Z,99825.00
2022-10-28T19:14:06.847Z,99820.00
2022-10-28T19:15:47.251Z,99819.00
2022-10-28T19:17:21.829Z,99822.00
2022-10-28T19:18:57.000Z,99809.00
2022-10-28T19:20:30.712Z,99804.00
2022-10-28T19:22:04.859Z,99821.00
2022-10-28T19:23:39.127Z,99821.00
2022-10-28T19:25:12.434Z,99829.00
2022-10-28T19:26:45.519Z,99824.00